Time;durP1;ratioP1;P1;durP2;ratioP2;P2;SDS_P1;SDS_P2;PMS_P1;PMS_P2;Temp;Humidity;BMP_temperature;BMP_pressure;BME280_temperature;BME280_humidity;BME280_pressure;Samples;Min_cycle;Max_cycle;Signal;HPM_P1;HPM_P2
2022/11/04 00:01:52;;;;;;;8.50;8.30;;;11.90;99.30;;;;;;4884084;29;20459;-78
2022/11/04 00:04:22;;;;;;;7.90;7.80;;;12.00;1.00;;;;;;4889143;29;20853;-78
2022/11/04 00:06:50;;;;;;;9.30;9.00;;;11.80;1.00;;;;;;4888270;29;20463;-78
2022/11/04 00:09:21;;;;;;;8.47;8.27;;;11.80;99.90;;;;;;4887899;29;20903;-79
2022/11/04 00:14:36;;;;;;;7.90;7.70;;;11.90;1.00;;;;;;4885348;29;20909;-80
2022/11/04 00:17:18;;;;;;;7.80;7.63;;;11.90;1.00;;;;;;4886910;29;21034;-78
2022/11/04 00:30:55;;;;;;;8.20;8.00;;;11.90;1.00;;;;;;4887665;29;20486;-79
2022/11/04 00:33:25;;;;;;;8.30;8.10;;;12.00;1.00;;;;;;4885985;29;20578;-78
2022/11/04 00:35:55;;;;;;;8.50;8.30;;;12.00;1.00;;;;;;4889122;29;20703;-80
2022/11/04 00:38:24;;;;;;;8.70;8.30;;;12.00;1.00;;;;;;4881500;29;20561;-78
2022/11/04 00:40:54;;;;;;;7.70;7.60;;;11.90;1.00;;;;;;4888518;29;20527;-77
2022/11/04 00:43:22;;;;;;;7.90;7.80;;;11.90;1.00;;;;;;4885254;29;20548;-77
2022/11/04 00:45:50;;;;;;;8.27;8.07;;;11.90;1.00;;;;;;4883935;29;20483;-78
2022/11/04 00:48:18;;;;;;;8.60;8.40;;;11.90;1.00;;;;;;4883684;29;20466;-80
2022/11/04 00:50:46;;;;;;;8.43;8.23;;;11.90;1.00;;;;;;4885464;29;20558;-79
2022/11/04 00:53:14;;;;;;;8.03;7.90;;;12.00;99.90;;;;;;4885664;29;20865;-80
2022/11/04 00:55:42;;;;;;;8.20;8.00;;;11.90;99.90;;;;;;4887621;29;20488;-78
2022/11/04 00:58:12;;;;;;;7.80;7.60;;;11.90;1.00;;;;;;4891046;29;20487;-82
2022/11/04 01:00:40;;;;;;;7.70;7.50;;;11.90;1.00;;;;;;4893268;29;20450;-83
2022/11/04 01:03:08;;;;;;;7.80;7.60;;;11.80;99.90;;;;;;4884275;29;20978;-81
2022/11/04 01:05:37;;;;;;;7.77;7.57;;;11.80;82.80;;;;;;4884124;29;20581;-83
2022/11/04 01:08:06;;;;;;;7.40;7.30;;;11.80;88.00;;;;;;4890340;29;20470;-79
2022/11/04 01:10:43;;;;;;;7.70;7.50;;;11.80;9.40;;;;;;4890776;29;20556;-77
2022/11/04 01:13:13;;;;;;;7.53;7.33;;;11.80;1.00;;;;;;4887772;29;20525;-78
2022/11/04 01:15:41;;;;;;;7.30;7.20;;;11.80;1.00;;;;;;4891336;29;20581;-79
2022/11/04 01:18:09;;;;;;;7.70;7.37;;;11.70;1.00;;;;;;4882931;29;20471;-78
2022/11/04 01:20:37;;;;;;;8.27;7.97;;;11.80;99.90;;;;;;4884949;29;20446;-79
2022/11/04 01:23:06;;;;;;;7.90;7.63;;;11.70;99.90;;;;;;4883101;29;21107;-78
2022/11/04 01:25:34;;;;;;;7.70;7.50;;;11.80;1.00;;;;;;4883309;29;20581;-78
2022/11/04 01:28:02;;;;;;;7.70;7.40;;;11.80;99.90;;;;;;4885435;29;20465;-78
2022/11/04 01:30:31;;;;;;;7.10;7.00;;;11.80;1.00;;;;;;4892484;29;20550;-79
2022/11/04 01:32:59;;;;;;;7.37;7.17;;;11.80;1.00;;;;;;4894679;29;20475;-78
2022/11/04 01:35:27;;;;;;;7.70;7.50;;;11.80;1.00;;;;;;4889942;29;20538;-82
2022/11/04 01:37:55;;;;;;;7.60;7.30;;;11.90;99.90;;;;;;4890958;29;20566;-80
2022/11/04 01:40:23;;;;;;;7.70;7.50;;;11.90;99.90;;;;;;4888294;29;20550;-78
2022/11/04 01:42:51;;;;;;;7.20;7.00;;;11.90;99.90;;;;;;4886664;29;20497;-78
2022/11/04 01:45:21;;;;;;;6.83;6.73;;;11.90;99.90;;;;;;4883552;29;20506;-79
2022/11/04 01:47:59;;;;;;;7.30;7.10;;;11.80;99.90;;;;;;4887822;29;20477;-78
2022/11/04 01:50:29;;;;;;;7.67;7.47;;;11.80;99.90;;;;;;4887167;29;20464;-78
2022/11/04 01:53:03;;;;;;;6.80;6.70;;;11.80;99.90;;;;;;4885912;29;20495;-79
2022/11/04 01:55:34;;;;;;;7.10;7.00;;;11.80;53.30;;;;;;4897648;29;20556;-80
2022/11/04 01:58:08;;;;;;;7.10;6.90;;;11.80;24.40;;;;;;4892008;29;21499;-80
2022/11/04 02:00:38;;;;;;;6.67;6.57;;;11.80;1.00;;;;;;4891440;29;20486;-79
2022/11/04 02:03:11;;;;;;;6.00;5.90;;;11.80;1.00;;;;;;4888937;29;20548;-78
2022/11/04 02:05:39;;;;;;;6.50;6.20;;;11.80;1.00;;;;;;4885734;29;20517;-78
2022/11/04 02:08:09;;;;;;;5.70;5.60;;;11.80;1.00;;;;;;4888746;29;20924;-78
2022/11/04 02:10:40;;;;;;;5.60;5.50;;;11.70;99.90;;;;;;4892901;29;20453;-78
2022/11/04 02:13:07;;;;;;;5.60;5.40;;;11.70;99.90;;;;;;4890218;29;20554;-80
2022/11/04 02:15:45;;;;;;;5.60;5.50;;;11.80;99.90;;;;;;4886124;29;20483;-78
2022/11/04 02:18:29;;;;;;;5.30;5.20;;;11.80;99.90;;;;;;4882877;29;20550;-78
2022/11/04 02:21:25;;;;;;;5.93;5.73;;;11.80;99.90;;;;;;4887873;29;20470;-79
2022/11/04 02:24:31;;;;;;;6.30;6.03;;;11.70;99.90;;;;;;4884927;29;20574;-80
2022/11/04 02:27:19;;;;;;;5.60;5.50;;;11.70;99.90;;;;;;4869436;29;20861;-79
2022/11/04 02:30:07;;;;;;;6.17;6.00;;;11.70;1.00;;;;;;4884300;29;20474;-77
2022/11/04 02:32:50;;;;;;;5.40;5.30;;;11.70;99.90;;;;;;4883484;29;20959;-78
2022/11/04 02:35:24;;;;;;;6.00;5.80;;;11.60;1.00;;;;;;4882506;29;20589;-78
2022/11/04 02:38:01;;;;;;;6.10;5.90;;;11.60;99.90;;;;;;4884547;29;20565;-79
2022/11/04 02:40:39;;;;;;;5.50;5.40;;;11.50;99.90;;;;;;4881942;29;20470;-78
2022/11/04 02:43:15;;;;;;;5.30;5.10;;;11.50;99.90;;;;;;4881972;29;20466;-78
2022/11/04 02:45:48;;;;;;;5.30;5.20;;;11.50;1.00;;;;;;4883798;29;20498;-79
2022/11/04 02:48:24;;;;;;;5.00;4.87;;;11.50;99.90;;;;;;4883070;29;20472;-77
2022/11/04 02:50:58;;;;;;;4.80;4.70;;;11.60;99.90;;;;;;4885563;29;20578;-78
2022/11/04 02:53:32;;;;;;;4.83;4.73;;;11.40;99.90;;;;;;4886788;29;20473;-78
2022/11/04 02:56:02;;;;;;;4.63;4.53;;;11.50;99.90;;;;;;4883057;29;20491;-80
2022/11/04 02:58:37;;;;;;;4.87;4.77;;;11.40;99.90;;;;;;4879217;29;20516;-79
2022/11/04 03:01:09;;;;;;;5.00;4.80;;;11.40;99.90;;;;;;4879748;29;20816;-79
2022/11/04 03:03:42;;;;;;;4.67;4.53;;;11.50;99.90;;;;;;4878911;29;20994;-78
2022/11/04 03:06:13;;;;;;;4.50;4.40;;;11.40;99.90;;;;;;4880396;29;20468;-78
2022/11/04 03:08:46;;;;;;;4.63;4.43;;;11.30;99.90;;;;;;4889051;29;20459;-79
2022/11/04 03:11:17;;;;;;;4.43;4.33;;;11.40;99.90;;;;;;4889127;29;20479;-78
2022/11/04 03:13:48;;;;;;;4.33;4.20;;;11.40;99.90;;;;;;4882922;29;21332;-78
2022/11/04 03:16:22;;;;;;;4.20;4.00;;;11.40;71.70;;;;;;4881975;29;20456;-78
2022/11/04 03:18:59;;;;;;;4.30;4.20;;;11.30;64.50;;;;;;4883692;29;20467;-78
2022/11/04 03:21:31;;;;;;;4.10;4.00;;;11.10;88.40;;;;;;4888436;29;20454;-80
2022/11/04 03:24:01;;;;;;;4.57;4.37;;;11.10;43.70;;;;;;4885670;29;20483;-78
2022/11/04 03:26:33;;;;;;;4.37;4.27;;;11.10;88.40;;;;;;4884275;29;20455;-79
2022/11/04 03:29:15;;;;;;;3.90;3.80;;;11.20;85.30;;;;;;4880697;29;20470;-79
2022/11/04 03:31:50;;;;;;;4.33;4.10;;;11.20;35.00;;;;;;4883821;29;20460;-81
2022/11/04 03:34:18;;;;;;;4.23;4.13;;;11.30;20.10;;;;;;4884557;29;20490;-78
2022/11/04 03:36:47;;;;;;;4.17;4.07;;;11.20;30.40;;;;;;4891365;29;20833;-78
2022/11/04 03:39:15;;;;;;;3.90;3.80;;;11.20;5.50;;;;;;4886322;29;20459;-79
2022/11/04 03:41:48;;;;;;;3.90;3.80;;;11.30;1.00;;;;;;4885931;29;20458;-78
2022/11/04 03:44:16;;;;;;;3.70;3.60;;;11.20;1.00;;;;;;4883527;29;20487;-80
2022/11/04 03:46:45;;;;;;;3.77;3.60;;;11.30;1.00;;;;;;4893231;29;20463;-78
2022/11/04 03:49:15;;;;;;;4.00;3.90;;;11.10;1.00;;;;;;4894409;29;20459;-79
2022/11/04 03:51:43;;;;;;;4.23;4.13;;;11.10;7.10;;;;;;4882889;29;20524;-79
2022/11/04 03:54:11;;;;;;;3.93;3.83;;;11.10;15.80;;;;;;4886730;29;20482;-78
2022/11/04 03:56:59;;;;;;;4.30;4.00;;;11.00;22.30;;;;;;4891294;29;21302;-79
2022/11/04 04:00:00;;;;;;;4.47;4.20;;;10.90;74.40;;;;;;4886612;29;20510;-78
2022/11/04 04:02:39;;;;;;;7.23;6.50;;;10.90;58.60;;;;;;4883217;29;21034;-78
2022/11/04 04:05:12;;;;;;;4.33;4.20;;;11.00;40.80;;;;;;4883902;29;20511;-78
2022/11/04 04:07:52;;;;;;;4.23;4.00;;;11.00;79.30;;;;;;4884954;29;20498;-79
2022/11/04 04:10:39;;;;;;;4.07;3.97;;;11.00;54.50;;;;;;4882202;29;20541;-78
2022/11/04 04:13:23;;;;;;;4.97;4.67;;;11.10;36.40;;;;;;4882915;29;21805;-79
2022/11/04 04:15:58;;;;;;;4.67;4.20;;;10.90;66.30;;;;;;4883000;29;20486;-80
2022/11/04 04:18:35;;;;;;;4.53;4.33;;;11.00;49.50;;;;;;4886009;29;20456;-78
2022/11/04 04:21:09;;;;;;;6.07;5.53;;;10.80;65.00;;;;;;4884699;29;20469;-80
2022/11/04 04:29:11;;;;;;;4.73;4.43;;;10.70;99.90;;;;;;4880286;29;20514;-79
2022/11/04 04:31:49;;;;;;;4.60;4.40;;;10.70;99.90;;;;;;4881200;29;20478;-79
2022/11/04 04:34:21;;;;;;;4.20;4.00;;;10.70;99.90;;;;;;4882783;29;20487;-78
2022/11/04 04:36:58;;;;;;;4.30;4.20;;;10.80;99.90;;;;;;4886455;29;20495;-81
2022/11/04 04:45:22;;;;;;;7.07;6.30;;;11.00;52.20;;;;;;4864668;29;20518;-80
2022/11/04 04:47:51;;;;;;;9.10;6.30;;;10.80;72.90;;;;;;4887141;29;20467;-81
2022/11/04 04:50:22;;;;;;;9.87;8.87;;;11.00;59.40;;;;;;4883587;29;20530;-79
2022/11/04 04:52:52;;;;;;;5.80;5.50;;;10.80;89.80;;;;;;4889593;29;20554;-78
2022/11/04 04:55:20;;;;;;;4.13;4.03;;;10.80;93.80;;;;;;4886322;29;21061;-78
2022/11/04 04:57:49;;;;;;;6.87;6.27;;;10.90;73.20;;;;;;4890426;29;20526;-78
2022/11/04 05:00:19;;;;;;;9.57;8.13;;;10.70;93.70;;;;;;4885023;29;20495;-79
2022/11/04 05:02:48;;;;;;;4.60;4.40;;;10.70;58.20;;;;;;4881873;29;20827;-83
2022/11/04 05:05:17;;;;;;;5.10;4.90;;;10.60;95.70;;;;;;4888980;29;20475;-77
2022/11/04 05:07:47;;;;;;;5.63;5.23;;;10.40;95.50;;;;;;4887564;29;20470;-78
2022/11/04 05:10:17;;;;;;;4.80;4.60;;;10.30;99.90;;;;;;4887450;29;20464;-77
2022/11/04 05:15:32;;;;;;;4.70;4.57;;;10.30;99.90;;;;;;4887637;29;20623;-78
2022/11/04 05:18:02;;;;;;;5.27;5.00;;;10.10;99.90;;;;;;4882687;29;20465;-77
2022/11/04 05:20:32;;;;;;;4.60;4.50;;;10.10;6.10;;;;;;4887383;29;20490;-77
2022/11/04 05:23:02;;;;;;;10.10;9.30;;;10.00;99.90;;;;;;4882012;29;20470;-77
2022/11/04 05:25:30;;;;;;;6.37;5.63;;;9.90;99.90;;;;;;4890634;29;20517;-79
2022/11/04 05:28:00;;;;;;;5.17;5.00;;;10.00;99.90;;;;;;4883001;29;20459;-80
2022/11/04 05:30:29;;;;;;;4.83;4.70;;;10.10;1.00;;;;;;4883884;29;20464;-81
2022/11/04 05:32:57;;;;;;;4.90;4.80;;;10.20;99.90;;;;;;4885103;29;20463;-78
2022/11/04 05:35:32;;;;;;;4.90;4.77;;;10.20;99.90;;;;;;4884484;29;20524;-79
2022/11/04 05:38:02;;;;;;;4.90;4.60;;;10.20;99.90;;;;;;4885311;29;20603;-80
2022/11/04 05:40:30;;;;;;;4.70;4.50;;;10.40;99.90;;;;;;4882425;29;20569;-78
2022/11/04 05:42:59;;;;;;;4.80;4.70;;;10.40;99.90;;;;;;4884306;29;20478;-79
2022/11/04 05:45:28;;;;;;;5.33;5.03;;;10.30;99.90;;;;;;4885424;29;20497;-80
2022/11/04 05:48:01;;;;;;;4.80;4.70;;;10.20;99.90;;;;;;4885938;29;20466;-82
2022/11/04 05:50:30;;;;;;;5.00;4.70;;;10.20;99.90;;;;;;4884365;29;20498;-78
2022/11/04 05:52:58;;;;;;;4.90;4.70;;;10.10;99.90;;;;;;4887567;29;20974;-79
2022/11/04 05:55:28;;;;;;;4.87;4.77;;;10.10;99.90;;;;;;4882100;29;20495;-78
2022/11/04 05:57:58;;;;;;;4.80;4.60;;;10.10;99.90;;;;;;4879805;29;20468;-80
2022/11/04 06:00:27;;;;;;;4.80;4.60;;;10.00;99.90;;;;;;4879804;29;21026;-83
2022/11/04 06:02:56;;;;;;;11.60;10.30;;;9.90;1.00;;;;;;4881958;29;21001;-78
2022/11/04 06:05:24;;;;;;;11.67;10.43;;;9.90;1.00;;;;;;4892078;29;20483;-81
2022/11/04 06:07:53;;;;;;;8.27;7.63;;;9.90;1.00;;;;;;4885716;29;20458;-80
2022/11/04 06:10:21;;;;;;;6.20;5.83;;;10.00;1.00;;;;;;4884401;29;20544;-81
2022/11/04 06:12:50;;;;;;;4.90;4.70;;;10.20;1.00;;;;;;4887999;29;20502;-79
2022/11/04 06:15:19;;;;;;;7.00;6.50;;;10.20;1.00;;;;;;4882724;29;21286;-80
2022/11/04 06:17:47;;;;;;;6.70;6.30;;;10.00;1.00;;;;;;4882344;29;20550;-78
2022/11/04 06:20:15;;;;;;;6.23;5.93;;;10.20;1.00;;;;;;4884012;29;20497;-80
2022/11/04 06:22:43;;;;;;;5.90;5.70;;;10.20;1.00;;;;;;4879586;29;20499;-79
2022/11/04 06:25:11;;;;;;;5.27;5.00;;;10.00;1.00;;;;;;4897395;29;21048;-79
2022/11/04 06:27:40;;;;;;;5.63;5.40;;;10.00;71.00;;;;;;4888064;29;21260;-80
2022/11/04 06:30:11;;;;;;;5.17;4.97;;;9.90;99.90;;;;;;4886528;29;20461;-79
2022/11/04 06:32:39;;;;;;;5.30;5.00;;;9.90;99.90;;;;;;4887593;29;20481;-80
2022/11/04 06:35:08;;;;;;;5.43;5.30;;;9.70;1.00;;;;;;4882088;29;20475;-80
2022/11/04 06:37:37;;;;;;;5.70;5.50;;;9.70;99.90;;;;;;4886268;29;20558;-79
2022/11/04 06:40:07;;;;;;;5.50;5.30;;;9.80;71.00;;;;;;4882038;29;20892;-79
2022/11/04 06:42:35;;;;;;;8.80;8.40;;;9.80;46.90;;;;;;4887024;29;20545;-79
2022/11/04 06:45:03;;;;;;;6.03;5.50;;;9.90;99.90;;;;;;4884496;29;20542;-79
2022/11/04 06:47:33;;;;;;;5.77;5.67;;;9.90;1.00;;;;;;4886785;29;20553;-78
2022/11/04 06:50:01;;;;;;;6.20;6.00;;;9.80;99.90;;;;;;4886070;29;20502;-78
2022/11/04 06:52:30;;;;;;;6.83;6.63;;;10.00;1.00;;;;;;4888139;29;20993;-77
2022/11/04 06:54:58;;;;;;;6.57;6.37;;;10.00;1.00;;;;;;4887513;29;20485;-78
2022/11/04 06:57:26;;;;;;;5.60;5.50;;;10.10;1.00;;;;;;4887394;29;20522;-79
2022/11/04 06:59:54;;;;;;;5.20;5.10;;;10.20;99.90;;;;;;4888656;29;20971;-80
2022/11/04 07:02:22;;;;;;;6.70;6.47;;;10.40;43.60;;;;;;4886673;29;20481;-78
2022/11/04 07:04:52;;;;;;;35.93;26.30;;;10.20;65.70;;;;;;4881019;29;21084;-79
2022/11/04 07:07:20;;;;;;;15.00;12.43;;;10.20;1.00;;;;;;4881287;29;20457;-78
2022/11/04 07:09:49;;;;;;;27.30;21.20;;;10.20;27.80;;;;;;4879758;29;20461;-79
2022/11/04 07:12:17;;;;;;;7.40;7.07;;;10.10;99.90;;;;;;4889909;29;20447;-79
2022/11/04 07:14:45;;;;;;;9.93;9.00;;;10.40;1.00;;;;;;4886127;29;20922;-79
2022/11/04 07:17:13;;;;;;;76.43;52.07;;;10.40;1.00;;;;;;4890380;29;20522;-80
2022/11/04 07:19:41;;;;;;;34.10;29.43;;;10.20;1.00;;;;;;4882137;29;21030;-78
2022/11/04 07:22:10;;;;;;;15.60;14.20;;;10.10;99.90;;;;;;4878354;29;20528;-80
2022/11/04 07:24:38;;;;;;;17.23;15.40;;;10.30;1.00;;;;;;4876838;29;20566;-80
2022/11/04 07:27:07;;;;;;;24.60;17.27;;;10.20;99.90;;;;;;4883189;29;20646;-79
2022/11/04 07:29:36;;;;;;;8.77;8.27;;;10.10;54.70;;;;;;4877694;29;20462;-79
2022/11/04 07:32:04;;;;;;;16.13;14.50;;;10.20;28.30;;;;;;4883971;29;21246;-79
2022/11/04 07:34:32;;;;;;;7.23;6.90;;;10.30;1.40;;;;;;4883276;29;21022;-81
2022/11/04 07:37:00;;;;;;;6.17;5.97;;;10.50;99.90;;;;;;4884334;29;21064;-80
2022/11/04 07:39:30;;;;;;;6.40;6.20;;;10.40;1.00;;;;;;4885420;29;20557;-82
2022/11/04 07:41:58;;;;;;;7.60;7.20;;;10.50;1.00;;;;;;4884451;29;20477;-81
2022/11/04 07:44:27;;;;;;;7.00;6.73;;;10.40;1.00;;;;;;4890890;29;21040;-80
2022/11/04 07:46:55;;;;;;;8.70;8.20;;;10.40;22.10;;;;;;4885320;29;20464;-79
2022/11/04 07:49:24;;;;;;;14.47;13.30;;;10.60;1.00;;;;;;4881800;29;20547;-78
2022/11/04 07:51:52;;;;;;;17.67;16.07;;;10.40;1.00;;;;;;4886264;29;20460;-79
2022/11/04 07:54:20;;;;;;;19.50;17.70;;;10.40;1.00;;;;;;4880638;29;21205;-79
2022/11/04 07:56:50;;;;;;;7.50;7.13;;;10.40;1.00;;;;;;4887168;29;20494;-80
2022/11/04 07:59:18;;;;;;;6.90;6.60;;;10.30;1.00;;;;;;4879950;29;20462;-79
2022/11/04 08:01:47;;;;;;;22.83;20.57;;;10.20;1.00;;;;;;4881311;29;20474;-79
2022/11/04 08:04:15;;;;;;;9.93;9.33;;;10.50;21.80;;;;;;4881752;29;20490;-79
2022/11/04 08:06:43;;;;;;;14.13;12.83;;;10.60;99.90;;;;;;4879098;29;20562;-81
2022/11/04 08:09:11;;;;;;;14.13;13.03;;;10.70;99.90;;;;;;4877086;29;21231;-80
2022/11/04 08:11:40;;;;;;;10.63;9.93;;;10.80;99.90;;;;;;4877803;29;20609;-80
2022/11/04 08:14:12;;;;;;;9.47;8.97;;;10.60;99.90;;;;;;4878470;29;20482;-80
2022/11/04 08:16:40;;;;;;;12.47;11.47;;;10.70;99.90;;;;;;4895957;29;20494;-79
2022/11/04 08:19:09;;;;;;;7.80;7.40;;;10.70;99.90;;;;;;4880603;29;20551;-79
2022/11/04 08:21:38;;;;;;;9.17;8.67;;;10.50;99.90;;;;;;4881859;29;20466;-79
2022/11/04 08:24:06;;;;;;;6.20;5.80;;;10.70;99.90;;;;;;4886968;29;20505;-79
2022/11/04 08:26:35;;;;;;;5.90;5.70;;;10.60;99.90;;;;;;4886456;29;21185;-81
2022/11/04 08:29:06;;;;;;;6.43;6.23;;;10.80;99.90;;;;;;4883380;29;20881;-80
2022/11/04 08:31:36;;;;;;;6.20;6.00;;;10.70;99.90;;;;;;4881291;29;20469;-79
2022/11/04 08:34:07;;;;;;;6.97;6.67;;;10.80;99.90;;;;;;4887534;29;20523;-79
2022/11/04 08:36:39;;;;;;;7.30;7.10;;;10.80;99.90;;;;;;4885186;29;20868;-80
2022/11/04 08:39:08;;;;;;;6.63;6.33;;;10.90;99.90;;;;;;4885122;29;20526;-78
2022/11/04 08:41:40;;;;;;;5.77;5.57;;;10.90;99.90;;;;;;4885640;29;20469;-79
2022/11/04 08:44:10;;;;;;;8.63;6.30;;;11.00;99.90;;;;;;4888092;29;20479;-78
2022/11/04 08:46:42;;;;;;;6.00;5.80;;;11.00;96.10;;;;;;4882092;29;20707;-80
2022/11/04 08:49:10;;;;;;;5.87;5.53;;;10.90;99.90;;;;;;4887366;29;20491;-80
2022/11/04 08:51:48;;;;;;;6.00;5.80;;;11.00;83.60;;;;;;4883752;29;20487;-79
2022/11/04 08:54:16;;;;;;;5.83;5.73;;;11.00;80.30;;;;;;4881348;29;20580;-81
2022/11/04 08:56:44;;;;;;;6.10;5.90;;;11.10;65.90;;;;;;4882527;29;20526;-80
2022/11/04 08:59:13;;;;;;;5.50;5.40;;;11.20;51.20;;;;;;4880230;29;20494;-79
2022/11/04 09:01:43;;;;;;;5.90;5.60;;;11.20;16.50;;;;;;4879701;29;20527;-78
2022/11/04 09:04:12;;;;;;;5.60;5.40;;;11.20;16.80;;;;;;4879782;29;20526;-79
2022/11/04 09:06:44;;;;;;;5.50;5.40;;;11.20;1.00;;;;;;4882711;29;20455;-78
2022/11/04 09:09:15;;;;;;;5.80;5.60;;;11.30;1.00;;;;;;4881834;29;20514;-80
2022/11/04 09:11:45;;;;;;;5.47;5.30;;;11.30;1.00;;;;;;4880972;29;20458;-79
2022/11/04 09:14:14;;;;;;;5.63;5.43;;;11.40;1.00;;;;;;4881357;29;20502;-79
2022/11/04 09:16:44;;;;;;;5.40;5.30;;;11.30;1.00;;;;;;4882727;29;20486;-79
2022/11/04 09:19:12;;;;;;;5.90;5.60;;;11.30;7.20;;;;;;4882104;29;20516;-79
2022/11/04 09:21:40;;;;;;;5.43;5.23;;;11.40;1.00;;;;;;4879954;29;20454;-79
2022/11/04 09:24:10;;;;;;;5.53;5.33;;;11.30;1.00;;;;;;4883051;29;20496;-79
2022/11/04 09:26:38;;;;;;;5.30;5.20;;;11.20;1.00;;;;;;4882378;29;20455;-78
2022/11/04 09:29:09;;;;;;;5.00;4.90;;;11.00;1.00;;;;;;4882976;29;20460;-79
2022/11/04 09:31:37;;;;;;;4.90;4.70;;;11.20;1.00;;;;;;4878689;29;20454;-79
2022/11/04 09:34:07;;;;;;;5.50;5.30;;;11.40;1.00;;;;;;4884641;29;20478;-80
2022/11/04 09:36:35;;;;;;;5.27;5.10;;;11.40;1.00;;;;;;4883321;29;20462;-79
2022/11/04 09:39:04;;;;;;;5.40;5.30;;;11.40;1.00;;;;;;4884470;29;20482;-79
2022/11/04 09:41:50;;;;;;;5.40;5.30;;;11.60;1.00;;;;;;4880849;29;20547;-79
2022/11/04 09:44:25;;;;;;;5.77;5.67;;;11.50;1.00;;;;;;4882808;29;20907;-81
2022/11/04 09:46:58;;;;;;;5.77;5.60;;;11.30;1.00;;;;;;4883100;29;20478;-78
2022/11/04 09:49:34;;;;;;;5.87;5.67;;;11.40;1.00;;;;;;4882359;29;20468;-78
2022/11/04 09:52:07;;;;;;;5.73;5.63;;;11.40;1.00;;;;;;4886156;29;20837;-77
2022/11/04 09:54:43;;;;;;;5.53;5.23;;;11.50;1.00;;;;;;4888628;29;20483;-80
2022/11/04 09:57:18;;;;;;;5.17;5.07;;;11.60;1.00;;;;;;4889205;29;21045;-80
2022/11/04 09:59:47;;;;;;;4.67;4.57;;;11.90;1.00;;;;;;4883894;29;21385;-79
2022/11/04 10:02:40;;;;;;;5.73;5.53;;;11.90;1.00;;;;;;4877794;29;20551;-79
2022/11/04 10:05:26;;;;;;;5.33;5.13;;;11.70;1.00;;;;;;4879455;29;20490;-80
2022/11/04 10:08:27;;;;;;;5.43;5.23;;;11.70;1.00;;;;;;4877941;29;20550;-78
2022/11/04 10:11:06;;;;;;;5.57;5.10;;;11.90;1.00;;;;;;4878250;29;20466;-81
2022/11/04 10:13:49;;;;;;;5.10;4.90;;;12.10;1.00;;;;;;4887371;29;20992;-80
2022/11/04 10:16:39;;;;;;;5.20;5.00;;;12.30;1.00;;;;;;4883490;29;20965;-80
2022/11/04 10:19:31;;;;;;;5.43;5.20;;;12.70;1.00;;;;;;4880998;29;20509;-81
2022/11/04 10:22:11;;;;;;;4.90;4.60;;;13.00;1.00;;;;;;4880744;29;20444;-79
2022/11/04 10:24:47;;;;;;;4.47;4.33;;;13.10;99.90;;;;;;4879110;29;20604;-80
2022/11/04 10:27:19;;;;;;;4.30;4.10;;;12.90;99.90;;;;;;4878157;29;20554;-80
2022/11/04 10:29:54;;;;;;;4.50;4.40;;;12.90;99.90;;;;;;4880486;29;20470;-80
2022/11/04 10:32:26;;;;;;;3.83;3.73;;;12.60;99.90;;;;;;4881104;29;20866;-78
2022/11/04 10:35:00;;;;;;;4.73;4.43;;;12.50;99.90;;;;;;4880473;29;20907;-80
2022/11/04 10:37:31;;;;;;;4.07;3.93;;;12.40;99.90;;;;;;4883529;29;20471;-80
2022/11/04 10:40:08;;;;;;;3.90;3.80;;;12.80;99.90;;;;;;4879885;29;20464;-79
2022/11/04 10:42:38;;;;;;;4.83;4.43;;;12.80;99.90;;;;;;4879826;29;20462;-80
2022/11/04 10:45:11;;;;;;;4.00;3.73;;;12.80;99.90;;;;;;4877492;29;20789;-79
2022/11/04 10:47:46;;;;;;;7.23;4.23;;;12.80;99.90;;;;;;4877157;29;20486;-80
2022/11/04 10:50:31;;;;;;;4.30;4.20;;;12.90;99.90;;;;;;4886586;29;20450;-79
2022/11/04 10:53:16;;;;;;;3.90;3.80;;;12.70;99.90;;;;;;4884165;29;20495;-79
2022/11/04 10:55:57;;;;;;;4.57;4.27;;;12.60;99.90;;;;;;4882732;29;20514;-80
2022/11/04 10:58:30;;;;;;;4.03;3.93;;;12.40;99.90;;;;;;4880858;29;20490;-80
2022/11/04 11:00:59;;;;;;;4.07;3.80;;;12.40;99.90;;;;;;4884472;29;20489;-80
2022/11/04 11:03:32;;;;;;;3.93;3.70;;;12.30;99.90;;;;;;4881393;29;20475;-81
2022/11/04 11:06:19;;;;;;;4.37;4.07;;;12.30;99.90;;;;;;4884867;29;20546;-80
2022/11/04 11:08:50;;;;;;;4.00;3.80;;;12.30;99.90;;;;;;4883692;29;21005;-80
2022/11/04 11:11:39;;;;;;;4.10;3.93;;;12.40;99.90;;;;;;4882282;29;20462;-80
2022/11/04 11:14:20;;;;;;;4.03;3.90;;;12.40;99.90;;;;;;4882997;29;20486;-80
2022/11/04 11:16:49;;;;;;;4.70;4.50;;;12.50;99.90;;;;;;4882308;29;20467;-79
2022/11/04 11:19:21;;;;;;;4.60;4.30;;;12.50;99.90;;;;;;4880214;29;20897;-79
2022/11/04 11:21:51;;;;;;;4.67;4.30;;;12.40;99.90;;;;;;4881877;29;20467;-79
2022/11/04 11:24:22;;;;;;;4.83;4.63;;;12.40;99.90;;;;;;4885033;29;21097;-80
2022/11/04 11:26:53;;;;;;;4.50;4.20;;;12.30;99.90;;;;;;4883729;29;20464;-80
2022/11/04 11:29:25;;;;;;;4.37;3.97;;;12.20;99.90;;;;;;4878779;29;20470;-79
2022/11/04 11:31:55;;;;;;;4.00;3.90;;;12.30;99.90;;;;;;4883972;29;20466;-80
2022/11/04 11:34:26;;;;;;;4.07;3.90;;;12.30;99.90;;;;;;4880132;29;20484;-79
2022/11/04 11:36:56;;;;;;;4.60;4.20;;;12.30;99.90;;;;;;4879545;29;20474;-80
2022/11/04 11:39:28;;;;;;;7.10;6.40;;;12.40;99.90;;;;;;4885230;29;20494;-80
2022/11/04 11:42:00;;;;;;;4.90;4.60;;;12.60;99.90;;;;;;4879791;29;20492;-80
2022/11/04 11:44:31;;;;;;;5.00;4.73;;;12.70;99.90;;;;;;4880878;29;20486;-80
2022/11/04 11:47:02;;;;;;;5.40;5.20;;;12.70;99.90;;;;;;4879865;29;20538;-80
2022/11/04 11:49:33;;;;;;;5.33;4.80;;;13.00;99.90;;;;;;4881254;29;20555;-79
2022/11/04 11:52:23;;;;;;;7.20;5.80;;;13.10;99.90;;;;;;4877858;29;20447;-79
2022/11/04 11:54:56;;;;;;;5.37;5.07;;;13.10;99.90;;;;;;4871715;29;21191;-81
2022/11/04 11:57:35;;;;;;;14.53;10.73;;;13.20;99.90;;;;;;4881858;29;20452;-81
2022/11/04 12:00:08;;;;;;;6.53;6.03;;;13.00;99.90;;;;;;4885153;29;20491;-81
2022/11/04 12:03:02;;;;;;;4.67;4.47;;;12.90;99.90;;;;;;4882907;29;20837;-81
2022/11/04 12:05:37;;;;;;;4.50;4.20;;;12.70;99.90;;;;;;4888038;29;20478;-81
2022/11/04 12:08:42;;;;;;;4.70;4.50;;;12.70;99.90;;;;;;4887463;29;20483;-81
2022/11/04 12:11:40;;;;;;;5.10;4.90;;;12.70;99.90;;;;;;4890256;29;20948;-82
2022/11/04 12:14:15;;;;;;;6.20;4.53;;;12.80;99.90;;;;;;4883444;29;20491;-82
2022/11/04 12:16:54;;;;;;;7.27;6.60;;;12.90;99.90;;;;;;4885846;29;20456;-81
2022/11/04 12:19:40;;;;;;;5.33;5.07;;;13.00;99.90;;;;;;4885705;29;20487;-80
2022/11/04 12:22:18;;;;;;;4.77;4.63;;;13.00;99.90;;;;;;4886033;29;20814;-81
2022/11/04 12:24:55;;;;;;;5.50;5.00;;;12.90;99.90;;;;;;4887003;29;20569;-81
2022/11/04 12:27:34;;;;;;;5.17;4.97;;;12.80;99.90;;;;;;4886620;29;20452;-80
2022/11/04 12:30:06;;;;;;;4.60;4.40;;;12.90;99.90;;;;;;4887108;29;20816;-81
2022/11/04 12:32:56;;;;;;;4.23;4.03;;;12.80;99.90;;;;;;4890057;29;20467;-80
2022/11/04 12:35:39;;;;;;;4.50;4.30;;;12.80;99.90;;;;;;4885853;29;20511;-81
2022/11/04 12:38:31;;;;;;;4.33;4.13;;;12.90;99.90;;;;;;4886376;29;20570;-80
2022/11/04 12:41:08;;;;;;;5.63;5.20;;;12.90;99.90;;;;;;4884635;29;20464;-81
2022/11/04 12:44:08;;;;;;;5.50;5.13;;;12.80;99.90;;;;;;4885405;29;20470;-80
2022/11/04 12:46:41;;;;;;;6.03;5.70;;;12.80;99.90;;;;;;4885401;29;20477;-81
2022/11/04 12:49:35;;;;;;;4.77;4.67;;;13.10;99.90;;;;;;4891471;29;20462;-81
2022/11/04 12:52:15;;;;;;;5.00;4.70;;;13.10;99.90;;;;;;4887953;29;20526;-84
2022/11/04 12:55:03;;;;;;;6.20;5.80;;;13.20;99.90;;;;;;4886915;29;20483;-80
2022/11/04 12:57:43;;;;;;;4.90;4.70;;;13.30;99.90;;;;;;4890064;29;20584;-81
2022/11/04 13:00:14;;;;;;;6.53;5.10;;;13.50;99.90;;;;;;4892778;29;20548;-80
2022/11/04 13:02:47;;;;;;;7.53;7.03;;;13.60;99.90;;;;;;4889546;29;21077;-81
2022/11/04 13:05:38;;;;;;;5.53;5.20;;;13.70;99.90;;;;;;4886541;29;21035;-80
2022/11/04 13:08:17;;;;;;;4.20;4.10;;;13.90;99.90;;;;;;4891229;29;20969;-81
2022/11/04 13:10:52;;;;;;;4.53;4.23;;;14.10;99.90;;;;;;4890398;29;20492;-81
2022/11/04 13:13:26;;;;;;;5.47;4.97;;;14.20;99.90;;;;;;4884350;29;20544;-81
2022/11/04 13:16:02;;;;;;;4.80;4.50;;;14.10;99.90;;;;;;4887030;29;22243;-81
2022/11/04 13:18:36;;;;;;;4.20;4.00;;;14.30;99.90;;;;;;4888811;29;20465;-82
2022/11/04 13:21:07;;;;;;;4.53;4.23;;;14.50;99.90;;;;;;4887339;29;20476;-84
2022/11/04 13:23:41;;;;;;;4.57;4.27;;;14.60;99.90;;;;;;4897364;29;20464;-80
2022/11/04 13:26:14;;;;;;;3.70;3.60;;;14.80;99.90;;;;;;4891323;29;20542;-81
2022/11/04 13:28:44;;;;;;;4.27;4.07;;;14.70;99.90;;;;;;4890528;29;20498;-81
2022/11/04 13:31:22;;;;;;;3.90;3.80;;;14.50;99.90;;;;;;4896505;29;20465;-81
2022/11/04 13:33:56;;;;;;;4.10;4.00;;;14.40;99.90;;;;;;4892636;29;20452;-80
2022/11/04 13:36:35;;;;;;;3.90;3.80;;;14.20;99.90;;;;;;4889442;29;20457;-81
2022/11/04 13:39:12;;;;;;;4.03;3.93;;;13.80;99.90;;;;;;4891722;29;20464;-82
2022/11/04 13:42:20;;;;;;;4.10;4.00;;;13.70;99.90;;;;;;4886691;29;20469;-82
2022/11/04 13:44:51;;;;;;;3.90;3.80;;;13.50;99.90;;;;;;4890882;29;20551;-82
2022/11/04 13:47:24;;;;;;;4.70;4.40;;;13.50;99.90;;;;;;4892107;29;20528;-82